sensor_id;sensor_type;location;lat;lon;timestamp;P1;durP1;ratioP1;P2;durP2;ratioP2
76667;SDS011;65585;51.166;16.922;2023-03-02T00:02:16;56.75;;;33.63;;
76667;SDS011;65585;51.166;16.922;2023-03-02T00:04:54;68.07;;;33.22;;
76667;SDS011;65585;51.166;16.922;2023-03-02T00:07:26;59.70;;;32.63;;
76667;SDS011;65585;51.166;16.922;2023-03-02T00:09:57;55.92;;;31.90;;
76667;SDS011;65585;51.166;16.922;2023-03-02T00:12:30;65.40;;;36.33;;
76667;SDS011;65585;51.166;16.922;2023-03-02T00:14:58;94.28;;;41.42;;
76667;SDS011;65585;51.166;16.922;2023-03-02T00:17:27;84.78;;;36.63;;
76667;SDS011;65585;51.166;16.922;2023-03-02T00:19:58;72.10;;;35.70;;
76667;SDS011;65585;51.166;16.922;2023-03-02T00:25:18;62.58;;;33.72;;
76667;SDS011;65585;51.166;16.922;2023-03-02T00:27:52;67.85;;;33.50;;
76667;SDS011;65585;51.166;16.922;2023-03-02T00:30:27;85.88;;;40.15;;
76667;SDS011;65585;51.166;16.922;2023-03-02T00:33:02;73.63;;;36.65;;
76667;SDS011;65585;51.166;16.922;2023-03-02T00:35:37;87.88;;;37.92;;
76667;SDS011;65585;51.166;16.922;2023-03-02T00:38:09;82.63;;;37.45;;
76667;SDS011;65585;51.166;16.922;2023-03-02T00:40:44;75.05;;;33.00;;
76667;SDS011;65585;51.166;16.922;2023-03-02T00:43:11;97.95;;;39.63;;
76667;SDS011;65585;51.166;16.922;2023-03-02T00:45:48;83.88;;;36.20;;
76667;SDS011;65585;51.166;16.922;2023-03-02T00:48:16;80.45;;;40.03;;
76667;SDS011;65585;51.166;16.922;2023-03-02T00:50:43;82.93;;;40.00;;
76667;SDS011;65585;51.166;16.922;2023-03-02T00:53:12;87.45;;;39.33;;
76667;SDS011;65585;51.166;16.922;2023-03-02T00:55:41;87.13;;;40.10;;
76667;SDS011;65585;51.166;16.922;2023-03-02T00:58:12;79.30;;;36.97;;
76667;SDS011;65585;51.166;16.922;2023-03-02T01:00:46;87.53;;;42.03;;
76667;SDS011;65585;51.166;16.922;2023-03-02T01:03:17;90.20;;;44.47;;
76667;SDS011;65585;51.166;16.922;2023-03-02T01:05:50;93.40;;;42.28;;
76667;SDS011;65585;51.166;16.922;2023-03-02T01:08:21;76.80;;;39.13;;
76667;SDS011;65585;51.166;16.922;2023-03-02T01:10:48;98.45;;;41.28;;
76667;SDS011;65585;51.166;16.922;2023-03-02T01:13:18;85.60;;;38.55;;
76667;SDS011;65585;51.166;16.922;2023-03-02T01:15:45;93.40;;;40.13;;
76667;SDS011;65585;51.166;16.922;2023-03-02T01:18:12;81.50;;;37.53;;
76667;SDS011;65585;51.166;16.922;2023-03-02T01:20:41;87.22;;;41.45;;
76667;SDS011;65585;51.166;16.922;2023-03-02T01:23:09;77.57;;;37.63;;
76667;SDS011;65585;51.166;16.922;2023-03-02T01:28:58;73.03;;;32.53;;
76667;SDS011;65585;51.166;16.922;2023-03-02T01:32:17;84.25;;;36.20;;
76667;SDS011;65585;51.166;16.922;2023-03-02T01:34:45;74.53;;;38.00;;
76667;SDS011;65585;51.166;16.922;2023-03-02T01:37:13;77.80;;;41.83;;
76667;SDS011;65585;51.166;16.922;2023-03-02T01:39:44;77.65;;;40.80;;
76667;SDS011;65585;51.166;16.922;2023-03-02T01:42:14;80.30;;;35.15;;
76667;SDS011;65585;51.166;16.922;2023-03-02T01:44:47;85.35;;;36.83;;
76667;SDS011;65585;51.166;16.922;2023-03-02T01:47:31;75.28;;;38.83;;
76667;SDS011;65585;51.166;16.922;2023-03-02T01:50:05;82.28;;;38.95;;
76667;SDS011;65585;51.166;16.922;2023-03-02T01:52:51;82.15;;;35.00;;
76667;SDS011;65585;51.166;16.922;2023-03-02T01:55:19;89.15;;;43.38;;
76667;SDS011;65585;51.166;16.922;2023-03-02T01:57:49;84.95;;;38.97;;
76667;SDS011;65585;51.166;16.922;2023-03-02T02:00:21;86.85;;;39.17;;
76667;SDS011;65585;51.166;16.922;2023-03-02T02:02:58;87.88;;;39.85;;
76667;SDS011;65585;51.166;16.922;2023-03-02T02:05:37;69.45;;;32.28;;
76667;SDS011;65585;51.166;16.922;2023-03-02T02:08:05;73.53;;;38.78;;
76667;SDS011;65585;51.166;16.922;2023-03-02T02:10:34;84.32;;;38.15;;
76667;SDS011;65585;51.166;16.922;2023-03-02T02:13:16;70.47;;;33.47;;
76667;SDS011;65585;51.166;16.922;2023-03-02T02:18:26;74.97;;;33.80;;
76667;SDS011;65585;51.166;16.922;2023-03-02T02:21:43;68.55;;;35.15;;
76667;SDS011;65585;51.166;16.922;2023-03-02T02:25:01;55.72;;;32.75;;
76667;SDS011;65585;51.166;16.922;2023-03-02T02:27:59;47.03;;;27.45;;
76667;SDS011;65585;51.166;16.922;2023-03-02T02:35:06;48.20;;;25.88;;
76667;SDS011;65585;51.166;16.922;2023-03-02T02:38:26;52.72;;;25.42;;
76667;SDS011;65585;51.166;16.922;2023-03-02T02:41:53;55.38;;;26.90;;
76667;SDS011;65585;51.166;16.922;2023-03-02T02:45:27;53.35;;;25.15;;
76667;SDS011;65585;51.166;16.922;2023-03-02T03:06:24;40.10;;;24.45;;
76667;SDS011;65585;51.166;16.922;2023-03-02T03:08:55;46.60;;;26.90;;
76667;SDS011;65585;51.166;16.922;2023-03-02T03:28:12;40.25;;;25.50;;
76667;SDS011;65585;51.166;16.922;2023-03-02T03:31:50;57.80;;;27.25;;
76667;SDS011;65585;51.166;16.922;2023-03-02T03:38:12;44.70;;;26.35;;
76667;SDS011;65585;51.166;16.922;2023-03-02T03:45:13;33.50;;;21.30;;
76667;SDS011;65585;51.166;16.922;2023-03-02T03:48:40;44.85;;;20.85;;
76667;SDS011;65585;51.166;16.922;2023-03-02T03:51:07;46.85;;;27.23;;
76667;SDS011;65585;51.166;16.922;2023-03-02T03:53:35;53.70;;;26.45;;
76667;SDS011;65585;51.166;16.922;2023-03-02T03:56:01;53.75;;;29.00;;
76667;SDS011;65585;51.166;16.922;2023-03-02T03:58:28;59.00;;;29.75;;
76667;SDS011;65585;51.166;16.922;2023-03-02T04:00:56;58.17;;;32.95;;
76667;SDS011;65585;51.166;16.922;2023-03-02T04:03:23;51.88;;;29.58;;
76667;SDS011;65585;51.166;16.922;2023-03-02T04:16:03;50.55;;;26.38;;
76667;SDS011;65585;51.166;16.922;2023-03-02T04:18:29;53.00;;;28.25;;
76667;SDS011;65585;51.166;16.922;2023-03-02T04:20:55;65.63;;;27.58;;
76667;SDS011;65585;51.166;16.922;2023-03-02T04:23:22;63.20;;;30.83;;
76667;SDS011;65585;51.166;16.922;2023-03-02T04:25:47;57.70;;;32.38;;
76667;SDS011;65585;51.166;16.922;2023-03-02T04:28:14;59.78;;;30.40;;
76667;SDS011;65585;51.166;16.922;2023-03-02T04:30:41;63.47;;;32.33;;
76667;SDS011;65585;51.166;16.922;2023-03-02T04:33:08;56.28;;;27.13;;
76667;SDS011;65585;51.166;16.922;2023-03-02T04:40:48;50.25;;;28.45;;
76667;SDS011;65585;51.166;16.922;2023-03-02T04:44:10;55.80;;;29.98;;
76667;SDS011;65585;51.166;16.922;2023-03-02T04:50:47;53.70;;;26.92;;
76667;SDS011;65585;51.166;16.922;2023-03-02T04:53:35;46.78;;;25.25;;
76667;SDS011;65585;51.166;16.922;2023-03-02T04:56:37;42.42;;;24.23;;
76667;SDS011;65585;51.166;16.922;2023-03-02T05:00:02;43.40;;;24.88;;
76667;SDS011;65585;51.166;16.922;2023-03-02T05:03:15;52.72;;;26.58;;
76667;SDS011;65585;51.166;16.922;2023-03-02T05:05:41;49.03;;;27.45;;
76667;SDS011;65585;51.166;16.922;2023-03-02T05:08:07;51.22;;;24.63;;
76667;SDS011;65585;51.166;16.922;2023-03-02T05:25:07;41.75;;;22.52;;
76667;SDS011;65585;51.166;16.922;2023-03-02T05:27:33;52.72;;;25.88;;
76667;SDS011;65585;51.166;16.922;2023-03-02T05:30:02;52.22;;;26.25;;
76667;SDS011;65585;51.166;16.922;2023-03-02T05:32:29;52.00;;;27.65;;
76667;SDS011;65585;51.166;16.922;2023-03-02T05:34:56;45.33;;;26.90;;
76667;SDS011;65585;51.166;16.922;2023-03-02T05:37:23;48.13;;;29.02;;
76667;SDS011;65585;51.166;16.922;2023-03-02T05:39:49;56.95;;;31.23;;
76667;SDS011;65585;51.166;16.922;2023-03-02T05:42:15;64.22;;;31.75;;
76667;SDS011;65585;51.166;16.922;2023-03-02T05:54:54;47.75;;;27.30;;
76667;SDS011;65585;51.166;16.922;2023-03-02T05:57:20;50.05;;;26.60;;
76667;SDS011;65585;51.166;16.922;2023-03-02T05:59:46;57.08;;;28.50;;
76667;SDS011;65585;51.166;16.922;2023-03-02T06:02:13;58.88;;;31.35;;
76667;SDS011;65585;51.166;16.922;2023-03-02T06:04:38;58.45;;;27.20;;
76667;SDS011;65585;51.166;16.922;2023-03-02T06:07:09;54.63;;;30.52;;
76667;SDS011;65585;51.166;16.922;2023-03-02T06:09:38;54.38;;;26.77;;
76667;SDS011;65585;51.166;16.922;2023-03-02T06:12:06;50.45;;;27.70;;
76667;SDS011;65585;51.166;16.922;2023-03-02T06:14:32;49.38;;;28.95;;
76667;SDS011;65585;51.166;16.922;2023-03-02T06:17:00;55.60;;;30.25;;
76667;SDS011;65585;51.166;16.922;2023-03-02T06:19:26;56.83;;;30.23;;
76667;SDS011;65585;51.166;16.922;2023-03-02T06:27:03;52.83;;;32.10;;
76667;SDS011;65585;51.166;16.922;2023-03-02T06:30:28;42.25;;;25.38;;
76667;SDS011;65585;51.166;16.922;2023-03-02T06:33:13;56.17;;;27.58;;
76667;SDS011;65585;51.166;16.922;2023-03-02T06:36:36;54.90;;;26.88;;
76667;SDS011;65585;51.166;16.922;2023-03-02T06:39:18;56.92;;;30.40;;
76667;SDS011;65585;51.166;16.922;2023-03-02T06:42:05;55.63;;;28.02;;
76667;SDS011;65585;51.166;16.922;2023-03-02T06:44:45;90.18;;;45.22;;
76667;SDS011;65585;51.166;16.922;2023-03-02T06:47:13;69.95;;;38.10;;
76667;SDS011;65585;51.166;16.922;2023-03-02T06:49:42;64.70;;;36.72;;
76667;SDS011;65585;51.166;16.922;2023-03-02T06:52:08;76.88;;;40.72;;
76667;SDS011;65585;51.166;16.922;2023-03-02T07:05:07;76.68;;;39.30;;
76667;SDS011;65585;51.166;16.922;2023-03-02T07:07:33;80.25;;;43.15;;
76667;SDS011;65585;51.166;16.922;2023-03-02T07:10:00;87.13;;;44.70;;
76667;SDS011;65585;51.166;16.922;2023-03-02T07:12:29;86.47;;;44.45;;
76667;SDS011;65585;51.166;16.922;2023-03-02T07:15:14;87.90;;;40.55;;
76667;SDS011;65585;51.166;16.922;2023-03-02T07:17:50;89.97;;;46.47;;
76667;SDS011;65585;51.166;16.922;2023-03-02T07:30:39;81.82;;;46.30;;
76667;SDS011;65585;51.166;16.922;2023-03-02T07:33:19;94.70;;;46.35;;
76667;SDS011;65585;51.166;16.922;2023-03-02T07:35:49;108.38;;;49.17;;
76667;SDS011;65585;51.166;16.922;2023-03-02T07:38:19;99.25;;;50.13;;
76667;SDS011;65585;51.166;16.922;2023-03-02T07:40:44;105.93;;;50.88;;
76667;SDS011;65585;51.166;16.922;2023-03-02T07:43:11;105.35;;;55.67;;
76667;SDS011;65585;51.166;16.922;2023-03-02T07:45:37;96.35;;;47.75;;
76667;SDS011;65585;51.166;16.922;2023-03-02T07:55:49;109.20;;;44.85;;
76667;SDS011;65585;51.166;16.922;2023-03-02T07:58:15;100.53;;;49.75;;
76667;SDS011;65585;51.166;16.922;2023-03-02T08:00:41;94.53;;;46.88;;
76667;SDS011;65585;51.166;16.922;2023-03-02T08:03:08;92.25;;;50.33;;
76667;SDS011;65585;51.166;16.922;2023-03-02T08:05:34;101.38;;;49.65;;
76667;SDS011;65585;51.166;16.922;2023-03-02T08:08:01;102.97;;;50.97;;
76667;SDS011;65585;51.166;16.922;2023-03-02T08:10:27;91.32;;;49.00;;
76667;SDS011;65585;51.166;16.922;2023-03-02T08:12:53;91.28;;;51.25;;
76667;SDS011;65585;51.166;16.922;2023-03-02T08:29:51;85.00;;;42.60;;
76667;SDS011;65585;51.166;16.922;2023-03-02T08:32:31;83.95;;;43.15;;
76667;SDS011;65585;51.166;16.922;2023-03-02T08:38:41;89.63;;;46.22;;
76667;SDS011;65585;51.166;16.922;2023-03-02T08:49:21;64.28;;;38.50;;
76667;SDS011;65585;51.166;16.922;2023-03-02T08:51:48;77.50;;;39.67;;
76667;SDS011;65585;51.166;16.922;2023-03-02T08:54:20;86.07;;;41.55;;
76667;SDS011;65585;51.166;16.922;2023-03-02T08:56:49;71.55;;;38.40;;
76667;SDS011;65585;51.166;16.922;2023-03-02T08:59:15;80.13;;;38.65;;
76667;SDS011;65585;51.166;16.922;2023-03-02T09:01:42;74.28;;;38.75;;
76667;SDS011;65585;51.166;16.922;2023-03-02T09:04:08;73.35;;;38.20;;
76667;SDS011;65585;51.166;16.922;2023-03-02T09:14:21;63.03;;;32.63;;
76667;SDS011;65585;51.166;16.922;2023-03-02T09:16:47;58.92;;;32.63;;
76667;SDS011;65585;51.166;16.922;2023-03-02T09:19:13;64.68;;;32.35;;
76667;SDS011;65585;51.166;16.922;2023-03-02T09:21:40;52.38;;;30.35;;
76667;SDS011;65585;51.166;16.922;2023-03-02T09:24:06;53.47;;;30.83;;
76667;SDS011;65585;51.166;16.922;2023-03-02T09:26:32;57.53;;;31.60;;
76667;SDS011;65585;51.166;16.922;2023-03-02T09:39:39;49.45;;;27.92;;
76667;SDS011;65585;51.166;16.922;2023-03-02T09:42:13;53.15;;;28.55;;
76667;SDS011;65585;51.166;16.922;2023-03-02T09:47:49;45.97;;;24.75;;
76667;SDS011;65585;51.166;16.922;2023-03-02T09:50:25;50.38;;;26.27;;
76667;SDS011;65585;51.166;16.922;2023-03-02T10:00:45;39.47;;;23.80;;
76667;SDS011;65585;51.166;16.922;2023-03-02T10:03:16;44.78;;;24.75;;
76667;SDS011;65585;51.166;16.922;2023-03-02T10:05:45;43.28;;;25.55;;
76667;SDS011;65585;51.166;16.922;2023-03-02T10:08:17;41.42;;;22.50;;
76667;SDS011;65585;51.166;16.922;2023-03-02T10:24:14;40.28;;;24.08;;
76667;SDS011;65585;51.166;16.922;2023-03-02T10:26:44;40.03;;;24.52;;
76667;SDS011;65585;51.166;16.922;2023-03-02T10:31:47;43.50;;;24.05;;
76667;SDS011;65585;51.166;16.922;2023-03-02T10:34:17;41.92;;;25.35;;
76667;SDS011;65585;51.166;16.922;2023-03-02T10:47:05;43.05;;;24.23;;
76667;SDS011;65585;51.166;16.922;2023-03-02T10:49:40;40.42;;;24.00;;
76667;SDS011;65585;51.166;16.922;2023-03-02T10:54:40;38.90;;;21.42;;
76667;SDS011;65585;51.166;16.922;2023-03-02T11:13:00;38.78;;;22.30;;
76667;SDS011;65585;51.166;16.922;2023-03-02T11:15:44;36.05;;;21.55;;
76667;SDS011;65585;51.166;16.922;2023-03-02T11:31:48;33.70;;;17.80;;
76667;SDS011;65585;51.166;16.922;2023-03-02T11:34:24;29.35;;;18.58;;
76667;SDS011;65585;51.166;16.922;2023-03-02T11:37:15;30.15;;;18.75;;
76667;SDS011;65585;51.166;16.922;2023-03-02T11:40:26;21.25;;;13.02;;
76667;SDS011;65585;51.166;16.922;2023-03-02T11:56:05;28.50;;;17.77;;
76667;SDS011;65585;51.166;16.922;2023-03-02T11:58:38;28.27;;;15.10;;
76667;SDS011;65585;51.166;16.922;2023-03-02T12:01:09;24.65;;;14.20;;
76667;SDS011;65585;51.166;16.922;2023-03-02T12:03:41;23.27;;;13.73;;
76667;SDS011;65585;51.166;16.922;2023-03-02T12:22:44;28.50;;;16.02;;
76667;SDS011;65585;51.166;16.922;2023-03-02T12:27:49;29.00;;;17.75;;
76667;SDS011;65585;51.166;16.922;2023-03-02T12:41:10;21.10;;;14.50;;
76667;SDS011;65585;51.166;16.922;2023-03-02T12:49:09;24.65;;;14.02;;
76667;SDS011;65585;51.166;16.922;2023-03-02T13:02:50;21.15;;;13.15;;
76667;SDS011;65585;51.166;16.922;2023-03-02T13:05:28;24.23;;;13.90;;
76667;SDS011;65585;51.166;16.922;2023-03-02T13:10:57;20.55;;;13.18;;
76667;SDS011;65585;51.166;16.922;2023-03-02T13:13:47;25.55;;;13.38;;
76667;SDS011;65585;51.166;16.922;2023-03-02T13:24:32;20.95;;;13.70;;
76667;SDS011;65585;51.166;16.922;2023-03-02T13:27:50;21.95;;;14.32;;
76667;SDS011;65585;51.166;16.922;2023-03-02T13:30:27;22.42;;;13.57;;
76667;SDS011;65585;51.166;16.922;2023-03-02T13:33:19;19.05;;;13.07;;
76667;SDS011;65585;51.166;16.922;2023-03-02T13:36:00;17.10;;;12.65;;
76667;SDS011;65585;51.166;16.922;2023-03-02T13:49:24;15.30;;;11.55;;
76667;SDS011;65585;51.166;16.922;2023-03-02T13:52:03;17.33;;;12.88;;
76667;SDS011;65585;51.166;16.922;2023-03-02T13:54:32;21.23;;;12.27;;
76667;SDS011;65585;51.166;16.922;2023-03-02T13:57:01;19.95;;;12.77;;
76667;SDS011;65585;51.166;16.922;2023-03-02T14:21:22;17.40;;;10.85;;
76667;SDS011;65585;51.166;16.922;2023-03-02T14:24:24;14.65;;;10.20;;
76667;SDS011;65585;51.166;16.922;2023-03-02T14:39:22;18.90;;;12.05;;
76667;SDS011;65585;51.166;16.922;2023-03-02T14:42:53;19.50;;;13.27;;
76667;SDS011;65585;51.166;16.922;2023-03-02T14:49:24;18.30;;;12.68;;
76667;SDS011;65585;51.166;16.922;2023-03-02T14:59:51;18.88;;;13.50;;
76667;SDS011;65585;51.166;16.922;2023-03-02T15:02:53;18.48;;;11.95;;
76667;SDS011;65585;51.166;16.922;2023-03-02T15:05:52;18.20;;;12.10;;
76667;SDS011;65585;51.166;16.922;2023-03-02T15:11:47;19.08;;;13.23;;
76667;SDS011;65585;51.166;16.922;2023-03-02T15:14:47;19.42;;;13.02;;
76667;SDS011;65585;51.166;16.922;2023-03-02T15:29:22;17.17;;;11.63;;
76667;SDS011;65585;51.166;16.922;2023-03-02T15:32:57;23.10;;;14.50;;
76667;SDS011;65585;51.166;16.922;2023-03-02T15:35:33;18.75;;;13.27;;
76667;SDS011;65585;51.166;16.922;2023-03-02T15:38:20;19.70;;;13.05;;
76667;SDS011;65585;51.166;16.922;2023-03-02T15:41:27;26.92;;;16.80;;
76667;SDS011;65585;51.166;16.922;2023-03-02T16:09:24;50.75;;;29.65;;
76667;SDS011;65585;51.166;16.922;2023-03-02T16:12:16;58.92;;;29.40;;
76667;SDS011;65585;51.166;16.922;2023-03-02T16:15:04;51.33;;;26.65;;
76667;SDS011;65585;51.166;16.922;2023-03-02T16:35:17;58.10;;;28.25;;
76667;SDS011;65585;51.166;16.922;2023-03-02T16:37:47;60.38;;;28.38;;
76667;SDS011;65585;51.166;16.922;2023-03-02T16:40:35;62.97;;;29.15;;
76667;SDS011;65585;51.166;16.922;2023-03-02T16:43:09;62.28;;;30.20;;
76667;SDS011;65585;51.166;16.922;2023-03-02T16:45:36;57.42;;;28.63;;
76667;SDS011;65585;51.166;16.922;2023-03-02T16:48:12;57.55;;;27.38;;
76667;SDS011;65585;51.166;16.922;2023-03-02T16:50:57;54.05;;;28.00;;
76667;SDS011;65585;51.166;16.922;2023-03-02T16:53:46;57.30;;;28.05;;
76667;SDS011;65585;51.166;16.922;2023-03-02T16:56:17;58.60;;;27.75;;
76667;SDS011;65585;51.166;16.922;2023-03-02T17:09:28;59.17;;;25.65;;
76667;SDS011;65585;51.166;16.922;2023-03-02T17:11:56;61.17;;;28.38;;
76667;SDS011;65585;51.166;16.922;2023-03-02T17:14:22;55.72;;;26.08;;
76667;SDS011;65585;51.166;16.922;2023-03-02T17:16:49;53.95;;;25.58;;
76667;SDS011;65585;51.166;16.922;2023-03-02T17:19:15;48.58;;;25.23;;
76667;SDS011;65585;51.166;16.922;2023-03-02T17:21:41;53.00;;;24.92;;
76667;SDS011;65585;51.166;16.922;2023-03-02T17:24:11;58.75;;;28.08;;
76667;SDS011;65585;51.166;16.922;2023-03-02T17:26:44;63.35;;;27.88;;
76667;SDS011;65585;51.166;16.922;2023-03-02T17:29:36;55.22;;;27.20;;
76667;SDS011;65585;51.166;16.922;2023-03-02T17:32:08;58.40;;;27.85;;
76667;SDS011;65585;51.166;16.922;2023-03-02T17:34:48;55.78;;;27.08;;
76667;SDS011;65585;51.166;16.922;2023-03-02T17:37:36;57.22;;;26.63;;
76667;SDS011;65585;51.166;16.922;2023-03-02T17:40:07;59.80;;;26.08;;
76667;SDS011;65585;51.166;16.922;2023-03-02T17:55:38;63.20;;;29.50;;
76667;SDS011;65585;51.166;16.922;2023-03-02T17:58:06;62.88;;;29.17;;
76667;SDS011;65585;51.166;16.922;2023-03-02T18:07:17;67.00;;;29.30;;
76667;SDS011;65585;51.166;16.922;2023-03-02T18:10:45;67.65;;;28.55;;
76667;SDS011;65585;51.166;16.922;2023-03-02T18:13:27;63.22;;;26.55;;
76667;SDS011;65585;51.166;16.922;2023-03-02T18:16:37;63.72;;;27.05;;
76667;SDS011;65585;51.166;16.922;2023-03-02T18:33:30;68.10;;;30.05;;
76667;SDS011;65585;51.166;16.922;2023-03-02T18:36:05;65.65;;;29.10;;
76667;SDS011;65585;51.166;16.922;2023-03-02T18:38:51;60.80;;;28.48;;
76667;SDS011;65585;51.166;16.922;2023-03-02T18:41:38;64.82;;;30.55;;
76667;SDS011;65585;51.166;16.922;2023-03-02T18:44:32;58.17;;;26.65;;
76667;SDS011;65585;51.166;16.922;2023-03-02T18:47:13;60.40;;;27.52;;
76667;SDS011;65585;51.166;16.922;2023-03-02T18:50:13;55.97;;;24.67;;
76667;SDS011;65585;51.166;16.922;2023-03-02T18:52:53;55.03;;;24.17;;
76667;SDS011;65585;51.166;16.922;2023-03-02T18:56:18;56.50;;;24.70;;
76667;SDS011;65585;51.166;16.922;2023-03-02T18:59:04;55.60;;;24.73;;
76667;SDS011;65585;51.166;16.922;2023-03-02T19:01:43;65.05;;;26.13;;
76667;SDS011;65585;51.166;16.922;2023-03-02T19:15:32;76.07;;;30.05;;
76667;SDS011;65585;51.166;16.922;2023-03-02T19:17:59;61.40;;;27.55;;
76667;SDS011;65585;51.166;16.922;2023-03-02T19:20:28;66.85;;;28.73;;
76667;SDS011;65585;51.166;16.922;2023-03-02T19:22:54;64.65;;;28.20;;
76667;SDS011;65585;51.166;16.922;2023-03-02T19:25:20;81.47;;;33.97;;
76667;SDS011;65585;51.166;16.922;2023-03-02T19:27:47;58.67;;;26.70;;
76667;SDS011;65585;51.166;16.922;2023-03-02T19:30:15;70.80;;;30.00;;
76667;SDS011;65585;51.166;16.922;2023-03-02T19:32:46;68.95;;;32.90;;
76667;SDS011;65585;51.166;16.922;2023-03-02T19:35:13;63.72;;;29.75;;
76667;SDS011;65585;51.166;16.922;2023-03-02T19:37:43;65.15;;;29.60;;
76667;SDS011;65585;51.166;16.922;2023-03-02T19:50:55;62.47;;;28.75;;
76667;SDS011;65585;51.166;16.922;2023-03-02T19:53:37;67.75;;;30.85;;
76667;SDS011;65585;51.166;16.922;2023-03-02T19:56:59;60.72;;;29.23;;
76667;SDS011;65585;51.166;16.922;2023-03-02T19:59:54;57.92;;;25.60;;
76667;SDS011;65585;51.166;16.922;2023-03-02T20:02:32;60.05;;;26.00;;
76667;SDS011;65585;51.166;16.922;2023-03-02T20:05:18;57.88;;;25.58;;
76667;SDS011;65585;51.166;16.922;2023-03-02T20:10:57;64.65;;;29.52;;
76667;SDS011;65585;51.166;16.922;2023-03-02T20:13:35;68.53;;;30.73;;
76667;SDS011;65585;51.166;16.922;2023-03-02T20:24:24;68.78;;;31.35;;
76667;SDS011;65585;51.166;16.922;2023-03-02T20:30:42;58.22;;;25.98;;
76667;SDS011;65585;51.166;16.922;2023-03-02T20:34:03;71.03;;;30.25;;
76667;SDS011;65585;51.166;16.922;2023-03-02T20:37:00;65.13;;;30.92;;
76667;SDS011;65585;51.166;16.922;2023-03-02T20:39:40;64.07;;;30.42;;
76667;SDS011;65585;51.166;16.922;2023-03-02T20:42:33;53.53;;;27.35;;
76667;SDS011;65585;51.166;16.922;2023-03-02T20:45:07;66.70;;;29.30;;
76667;SDS011;65585;51.166;16.922;2023-03-02T20:48:13;59.28;;;24.92;;
76667;SDS011;65585;51.166;16.922;2023-03-02T20:59:22;64.80;;;27.25;;
76667;SDS011;65585;51.166;16.922;2023-03-02T21:01:49;61.33;;;26.65;;
76667;SDS011;65585;51.166;16.922;2023-03-02T21:04:15;39.67;;;19.67;;
76667;SDS011;65585;51.166;16.922;2023-03-02T21:06:42;58.78;;;25.20;;
76667;SDS011;65585;51.166;16.922;2023-03-02T21:09:09;58.38;;;25.33;;
76667;SDS011;65585;51.166;16.922;2023-03-02T21:11:37;58.22;;;23.27;;
76667;SDS011;65585;51.166;16.922;2023-03-02T21:14:03;56.78;;;23.33;;
76667;SDS011;65585;51.166;16.922;2023-03-02T21:16:32;58.75;;;24.70;;
76667;SDS011;65585;51.166;16.922;2023-03-02T21:19:02;60.22;;;25.83;;
76667;SDS011;65585;51.166;16.922;2023-03-02T21:32:01;63.60;;;22.98;;
76667;SDS011;65585;51.166;16.922;2023-03-02T21:35:40;57.25;;;23.30;;
76667;SDS011;65585;51.166;16.922;2023-03-02T21:38:47;69.25;;;25.77;;
76667;SDS011;65585;51.166;16.922;2023-03-02T21:45:34;50.90;;;21.73;;
76667;SDS011;65585;51.166;16.922;2023-03-02T22:01:51;63.70;;;23.98;;
76667;SDS011;65585;51.166;16.922;2023-03-02T22:04:38;51.10;;;22.23;;
76667;SDS011;65585;51.166;16.922;2023-03-02T22:08:13;62.40;;;24.92;;
76667;SDS011;65585;51.166;16.922;2023-03-02T22:11:21;70.60;;;26.83;;
76667;SDS011;65585;51.166;16.922;2023-03-02T22:14:31;98.55;;;28.38;;
76667;SDS011;65585;51.166;16.922;2023-03-02T22:35:38;84.07;;;32.20;;
76667;SDS011;65585;51.166;16.922;2023-03-02T22:41:27;92.22;;;28.65;;
76667;SDS011;65585;51.166;16.922;2023-03-02T22:52:18;123.72;;;35.30;;
76667;SDS011;65585;51.166;16.922;2023-03-02T23:02:49;70.75;;;27.88;;
76667;SDS011;65585;51.166;16.922;2023-03-02T23:16:05;81.53;;;29.63;;
76667;SDS011;65585;51.166;16.922;2023-03-02T23:23:07;91.90;;;29.10;;
76667;SDS011;65585;51.166;16.922;2023-03-02T23:26:38;77.50;;;25.95;;
76667;SDS011;65585;51.166;16.922;2023-03-02T23:29:35;75.28;;;26.88;;
76667;SDS011;65585;51.166;16.922;2023-03-02T23:32:30;81.85;;;27.60;;
76667;SDS011;65585;51.166;16.922;2023-03-02T23:45:58;76.78;;;28.05;;
76667;SDS011;65585;51.166;16.922;2023-03-02T23:48:40;84.20;;;29.02;;
76667;SDS011;65585;51.166;16.922;2023-03-02T23:51:42;95.18;;;32.20;;
76667;SDS011;65585;51.166;16.922;2023-03-02T23:54:24;79.95;;;24.77;;
76667;SDS011;65585;51.166;16.922;2023-03-02T23:57:23;65.32;;;22.98;;
